Time;durP1;ratioP1;P1;durP2;ratioP2;P2;SDS_P1;SDS_P2;PMS_P1;PMS_P2;Temp;Humidity;BMP_temperature;BMP_pressure;BME280_temperature;BME280_humidity;BME280_pressure;Samples;Min_cycle;Max_cycle;Signal;HPM_P1;HPM_P2
2021/09/02 00:00:30;;;;;;;51.45;21.60;;;10.90;99.90;;;;;;5011717;28;20022;-57
2021/09/02 00:02:56;;;;;;;57.88;23.52;;;11.00;99.90;;;;;;5011775;28;20034;-50
2021/09/02 00:05:21;;;;;;;49.40;21.73;;;11.00;99.90;;;;;;5011620;28;20041;-55
2021/09/02 00:07:47;;;;;;;50.05;21.35;;;11.00;99.90;;;;;;5011616;28;20435;-54
2021/09/02 00:10:13;;;;;;;49.17;20.42;;;10.90;99.90;;;;;;5010625;28;20029;-59
2021/09/02 00:12:38;;;;;;;46.95;18.63;;;10.80;99.90;;;;;;5010396;28;20063;-58
2021/09/02 00:15:06;;;;;;;47.65;20.40;;;10.80;99.90;;;;;;5010705;28;20112;-57
2021/09/02 00:17:32;;;;;;;60.15;21.50;;;10.80;99.90;;;;;;5010425;28;20544;-57
2021/09/02 00:19:58;;;;;;;51.72;22.40;;;10.70;99.90;;;;;;5010543;28;20097;-58
2021/09/02 00:22:23;;;;;;;67.30;23.73;;;10.70;99.90;;;;;;5010508;28;20169;-56
2021/09/02 00:24:49;;;;;;;59.92;25.20;;;10.70;99.90;;;;;;5010446;28;20117;-59
2021/09/02 00:27:14;;;;;;;62.78;23.60;;;10.70;99.90;;;;;;5010576;28;20104;-53
2021/09/02 00:29:40;;;;;;;64.05;23.13;;;10.80;99.90;;;;;;5009596;28;20065;-58
2021/09/02 00:32:06;;;;;;;63.70;25.13;;;10.80;99.90;;;;;;5009988;28;20034;-57
2021/09/02 00:34:31;;;;;;;59.88;22.92;;;10.80;99.90;;;;;;5010136;28;20025;-55
2021/09/02 00:36:57;;;;;;;61.22;23.67;;;10.80;99.90;;;;;;5009784;28;20029;-54
2021/09/02 00:39:22;;;;;;;56.88;23.38;;;10.80;99.90;;;;;;5010554;28;20026;-55
2021/09/02 00:41:48;;;;;;;58.72;22.63;;;10.80;99.90;;;;;;5009937;28;20018;-57
2021/09/02 00:44:35;;;;;;;63.05;23.67;;;10.80;99.90;;;;;;5009839;28;20111;-59
2021/09/02 00:47:03;;;;;;;55.05;22.33;;;10.70;99.90;;;;;;5024928;28;20030;-56
2021/09/02 00:49:29;;;;;;;62.53;25.25;;;10.70;99.90;;;;;;5010364;28;20030;-58
2021/09/02 00:51:58;;;;;;;51.65;21.40;;;10.70;99.90;;;;;;4990819;28;20030;-56
2021/09/02 00:54:24;;;;;;;64.20;23.90;;;10.70;99.90;;;;;;5010972;28;20119;-56
2021/09/02 00:56:49;;;;;;;64.72;23.95;;;10.70;99.90;;;;;;5011974;28;20066;-57
2021/09/02 00:59:15;;;;;;;65.10;25.05;;;10.80;99.90;;;;;;5047721;23;20042;-57
2021/09/02 01:01:41;;;;;;;62.65;23.92;;;10.80;99.90;;;;;;5008715;28;20034;-56
2021/09/02 01:04:06;;;;;;;60.72;23.80;;;10.80;99.90;;;;;;5009705;28;20036;-55
2021/09/02 01:06:32;;;;;;;56.97;23.50;;;10.80;99.90;;;;;;5011093;28;20042;-60
2021/09/02 01:08:59;;;;;;;62.08;23.63;;;10.80;99.90;;;;;;5011211;28;20061;-54
2021/09/02 01:11:24;;;;;;;68.78;24.88;;;10.70;99.90;;;;;;5009791;28;20033;-57
2021/09/02 01:13:50;;;;;;;60.15;23.52;;;10.70;99.90;;;;;;5010249;28;20025;-56
2021/09/02 01:19:44;;;;;;;52.65;22.25;;;10.70;99.90;;;;;;5400360;23;20037;-55
2021/09/02 01:22:09;;;;;;;49.92;21.75;;;10.80;99.90;;;;;;5019575;28;20041;-59
2021/09/02 01:24:35;;;;;;;51.25;21.95;;;10.80;99.90;;;;;;5029717;28;20507;-59
2021/09/02 01:27:01;;;;;;;57.65;21.48;;;10.70;99.90;;;;;;5029529;28;20028;-59
2021/09/02 01:29:27;;;;;;;50.45;21.45;;;10.70;99.90;;;;;;5025506;28;20036;-57
2021/09/02 01:31:53;;;;;;;51.97;20.25;;;10.70;99.90;;;;;;5028912;28;20407;-58
2021/09/02 01:34:19;;;;;;;53.75;21.45;;;10.70;99.90;;;;;;5027207;28;20042;-58
2021/09/02 01:36:46;;;;;;;51.13;21.27;;;10.60;99.90;;;;;;5030079;28;20033;-57
2021/09/02 01:39:18;;;;;;;56.70;21.17;;;10.60;99.90;;;;;;5030007;28;20116;-60
2021/09/02 01:41:43;;;;;;;53.65;21.38;;;10.60;99.90;;;;;;5053640;23;20045;-59
2021/09/02 01:44:09;;;;;;;62.28;22.35;;;10.60;99.90;;;;;;5049129;28;20024;-60
2021/09/02 01:46:35;;;;;;;54.83;21.92;;;10.60;99.90;;;;;;5049183;28;20033;-57
2021/09/02 01:49:00;;;;;;;51.63;21.30;;;10.50;99.90;;;;;;5050239;28;20107;-58
2021/09/02 01:51:26;;;;;;;56.97;21.70;;;10.50;99.90;;;;;;5050188;28;20514;-57
2021/09/02 01:53:51;;;;;;;53.38;21.88;;;10.40;99.90;;;;;;5048525;28;20505;-60
2021/09/02 01:56:17;;;;;;;56.60;22.83;;;10.40;99.90;;;;;;5049665;28;20037;-54
2021/09/02 01:58:42;;;;;;;61.85;23.55;;;10.40;99.90;;;;;;5048401;28;20434;-57
2021/09/02 02:01:08;;;;;;;53.83;20.88;;;10.40;99.90;;;;;;5048578;28;20033;-58
2021/09/02 02:03:33;;;;;;;46.90;20.58;;;10.40;99.90;;;;;;5049681;28;20032;-57
2021/09/02 02:05:59;;;;;;;52.92;21.75;;;10.40;99.90;;;;;;5049845;28;20064;-55
2021/09/02 02:08:25;;;;;;;62.15;23.55;;;10.40;99.90;;;;;;5049721;28;20029;-53
2021/09/02 02:10:50;;;;;;;62.92;22.85;;;10.40;99.90;;;;;;5047871;28;20025;-58
2021/09/02 02:13:16;;;;;;;53.92;24.10;;;10.30;99.90;;;;;;5049337;28;20494;-58
2021/09/02 02:15:41;;;;;;;58.40;20.20;;;10.20;99.90;;;;;;5047881;28;20025;-58
2021/09/02 02:18:08;;;;;;;58.38;22.42;;;10.20;99.90;;;;;;5048261;28;20021;-58
2021/09/02 02:20:34;;;;;;;52.08;21.65;;;10.10;99.90;;;;;;5049503;28;20071;-56
2021/09/02 02:22:59;;;;;;;52.70;20.77;;;10.00;99.90;;;;;;5048738;28;20569;-58
2021/09/02 02:25:25;;;;;;;48.40;20.67;;;10.00;99.90;;;;;;5047982;28;20037;-57
2021/09/02 02:27:51;;;;;;;48.67;20.25;;;9.90;99.90;;;;;;5048486;28;20029;-55
2021/09/02 02:30:18;;;;;;;49.00;21.08;;;9.90;99.90;;;;;;5049194;28;20029;-56
2021/09/02 02:32:44;;;;;;;65.28;23.23;;;9.80;99.90;;;;;;5049156;28;20033;-58
2021/09/02 02:35:10;;;;;;;61.42;24.27;;;9.80;99.90;;;;;;5048622;28;20032;-56
2021/09/02 02:37:36;;;;;;;65.82;24.15;;;9.80;99.90;;;;;;5049078;28;20024;-52
2021/09/02 02:40:07;;;;;;;59.67;23.33;;;9.90;99.90;;;;;;5049662;28;20009;-56
2021/09/02 02:42:33;;;;;;;60.90;23.58;;;9.90;99.90;;;;;;5047002;28;20040;-58
2021/09/02 02:44:58;;;;;;;56.58;21.77;;;9.90;99.90;;;;;;5047396;28;20108;-56
2021/09/02 02:47:24;;;;;;;54.45;21.88;;;9.90;99.90;;;;;;5047280;28;20037;-57
2021/09/02 02:49:50;;;;;;;53.08;19.67;;;9.90;99.90;;;;;;5047448;28;20037;-56
2021/09/02 02:52:15;;;;;;;53.10;22.05;;;9.90;99.90;;;;;;5045639;28;20037;-58
2021/09/02 02:54:41;;;;;;;56.15;20.52;;;9.90;99.90;;;;;;5055224;28;20426;-56
2021/09/02 02:57:06;;;;;;;57.15;21.05;;;9.90;99.90;;;;;;5052956;28;20035;-56
2021/09/02 02:59:32;;;;;;;59.50;22.23;;;9.90;99.90;;;;;;5051912;28;20116;-56
2021/09/02 03:01:58;;;;;;;55.10;22.20;;;10.00;99.90;;;;;;5052736;28;20036;-58
2021/09/02 03:04:23;;;;;;;47.42;20.20;;;10.00;99.90;;;;;;5052190;28;20079;-57
2021/09/02 03:06:49;;;;;;;54.60;21.50;;;10.00;99.90;;;;;;5052575;28;20458;-52
2021/09/02 03:09:15;;;;;;;56.80;20.70;;;10.00;99.90;;;;;;5053306;28;20037;-56
2021/09/02 03:11:40;;;;;;;59.97;22.52;;;9.90;99.90;;;;;;5052519;28;20033;-53
2021/09/02 03:14:06;;;;;;;52.63;20.75;;;9.90;99.90;;;;;;5053061;28;20079;-57
2021/09/02 03:16:31;;;;;;;64.50;22.73;;;9.90;99.90;;;;;;5052981;28;20026;-55
2021/09/02 03:18:57;;;;;;;52.22;21.25;;;9.90;99.90;;;;;;5050478;28;20025;-57
2021/09/02 03:21:23;;;;;;;51.42;21.38;;;9.80;99.90;;;;;;5054986;28;20017;-57
2021/09/02 03:23:48;;;;;;;48.22;19.70;;;9.70;99.90;;;;;;5054373;28;20037;-56
2021/09/02 03:26:14;;;;;;;47.33;18.85;;;9.70;99.90;;;;;;5052533;28;20032;-53
2021/09/02 03:28:40;;;;;;;44.72;18.25;;;9.60;99.90;;;;;;5051723;28;20056;-58
2021/09/02 03:31:05;;;;;;;44.13;19.00;;;9.60;99.90;;;;;;5052238;28;20040;-55
2021/09/02 03:33:31;;;;;;;47.15;17.92;;;9.50;99.90;;;;;;5051624;28;20029;-55
2021/09/02 03:35:56;;;;;;;52.25;18.55;;;9.50;99.90;;;;;;5052578;28;20053;-57
2021/09/02 03:38:22;;;;;;;42.05;17.50;;;9.50;99.90;;;;;;5052570;28;20040;-57
2021/09/02 03:40:47;;;;;;;49.15;17.65;;;9.40;99.90;;;;;;5052477;28;20399;-57
2021/09/02 03:43:13;;;;;;;40.33;17.73;;;9.40;99.90;;;;;;5051744;28;20403;-58
2021/09/02 03:45:39;;;;;;;38.63;17.10;;;9.40;99.90;;;;;;5051984;28;20113;-55
2021/09/02 03:48:04;;;;;;;46.97;18.95;;;9.40;99.90;;;;;;5051675;28;20029;-57
2021/09/02 03:50:30;;;;;;;38.88;17.48;;;9.30;99.90;;;;;;5052406;28;20506;-53
2021/09/02 03:52:56;;;;;;;39.25;16.27;;;9.30;99.90;;;;;;5052199;28;20032;-54
2021/09/02 03:55:21;;;;;;;53.70;18.13;;;9.30;99.90;;;;;;5050854;28;20025;-53
2021/09/02 03:57:47;;;;;;;36.58;16.75;;;9.20;99.90;;;;;;5051583;28;20063;-58
2021/09/02 04:00:13;;;;;;;45.58;18.13;;;9.20;99.90;;;;;;5052301;28;20024;-56
2021/09/02 04:02:39;;;;;;;41.30;17.05;;;9.20;99.90;;;;;;5050385;28;20507;-54
2021/09/02 04:05:07;;;;;;;40.65;17.35;;;9.20;99.90;;;;;;5048583;28;20035;-58
2021/09/02 04:07:33;;;;;;;37.08;16.33;;;9.20;99.90;;;;;;5050994;28;20040;-58
2021/09/02 04:09:58;;;;;;;38.70;17.08;;;9.20;99.90;;;;;;5051805;28;20041;-59
2021/09/02 04:12:24;;;;;;;47.75;18.58;;;9.20;99.90;;;;;;5048095;28;20446;-56
2021/09/02 04:14:50;;;;;;;44.28;18.65;;;9.30;99.90;;;;;;5049420;28;20032;-55
2021/09/02 04:17:15;;;;;;;46.00;18.98;;;9.40;99.90;;;;;;5051950;28;20400;-57
2021/09/02 04:19:41;;;;;;;52.40;18.73;;;9.50;99.90;;;;;;5051745;28;20063;-55
2021/09/02 04:22:06;;;;;;;42.55;18.23;;;9.50;99.90;;;;;;5051185;28;20051;-57
2021/09/02 04:24:32;;;;;;;39.15;18.02;;;9.60;99.90;;;;;;5047027;28;20411;-55
2021/09/02 04:26:58;;;;;;;42.55;19.40;;;9.70;99.90;;;;;;5049953;28;20031;-59
2021/09/02 04:29:23;;;;;;;42.97;18.42;;;9.80;99.90;;;;;;5049517;28;20064;-58
2021/09/02 04:31:49;;;;;;;38.63;17.65;;;9.80;99.90;;;;;;5051230;28;20033;-53
2021/09/02 04:34:15;;;;;;;39.17;17.45;;;9.90;99.90;;;;;;5048017;28;20025;-56
2021/09/02 04:36:41;;;;;;;46.58;18.70;;;9.90;99.90;;;;;;5046755;28;20021;-54
2021/09/02 04:39:07;;;;;;;39.03;16.55;;;10.00;99.90;;;;;;5046812;28;20045;-59
2021/09/02 04:41:33;;;;;;;34.42;16.50;;;10.00;99.90;;;;;;5044448;28;20549;-59
2021/09/02 04:43:59;;;;;;;30.17;15.77;;;10.10;99.90;;;;;;5051783;28;20036;-56
2021/09/02 04:46:25;;;;;;;31.83;14.75;;;10.10;99.90;;;;;;5048276;28;20369;-59
2021/09/02 04:48:51;;;;;;;27.02;14.10;;;10.10;99.90;;;;;;5040342;28;20084;-57
2021/09/02 04:51:16;;;;;;;29.45;15.02;;;10.10;99.90;;;;;;5050920;28;20029;-54
2021/09/02 04:53:43;;;;;;;25.85;12.68;;;10.10;99.90;;;;;;5042543;28;20033;-55
2021/09/02 04:56:09;;;;;;;32.17;15.07;;;10.10;99.90;;;;;;5049863;28;20464;-55
2021/09/02 04:58:35;;;;;;;30.08;13.40;;;10.20;99.90;;;;;;5053850;28;20207;-59
2021/09/02 05:01:00;;;;;;;36.10;15.43;;;10.30;99.90;;;;;;5051062;28;20578;-59
2021/09/02 05:03:26;;;;;;;31.48;14.40;;;10.30;99.90;;;;;;5046582;28;20069;-58
2021/09/02 05:05:52;;;;;;;24.77;12.98;;;10.30;99.90;;;;;;5047792;28;20056;-58
2021/09/02 05:08:17;;;;;;;15.07;9.73;;;10.30;99.90;;;;;;5047438;28;20028;-56
2021/09/02 05:10:43;;;;;;;23.15;10.90;;;10.40;99.90;;;;;;5043495;28;20025;-59
2021/09/02 05:13:08;;;;;;;18.05;8.88;;;10.40;99.90;;;;;;5047342;28;20063;-57
2021/09/02 05:15:34;;;;;;;19.15;9.50;;;10.50;99.90;;;;;;5046012;28;20064;-58
2021/09/02 05:18:00;;;;;;;12.18;7.97;;;10.50;99.90;;;;;;5050264;28;20033;-58
2021/09/02 05:20:25;;;;;;;14.02;8.50;;;10.50;99.90;;;;;;5050122;28;20074;-59
2021/09/02 05:22:51;;;;;;;14.50;7.95;;;10.60;99.90;;;;;;5049731;28;20099;-59
2021/09/02 05:25:17;;;;;;;14.63;8.18;;;10.70;99.90;;;;;;5049066;28;20035;-57
2021/09/02 05:27:42;;;;;;;21.02;10.98;;;10.90;99.90;;;;;;5048791;28;20028;-59
2021/09/02 05:30:13;;;;;;;22.45;10.50;;;11.10;99.90;;;;;;5049969;28;20491;-60
2021/09/02 05:32:39;;;;;;;29.10;12.80;;;11.30;99.90;;;;;;5046269;28;20052;-57
2021/09/02 05:35:06;;;;;;;20.10;11.85;;;11.40;99.90;;;;;;5048809;28;20711;-59
2021/09/02 05:37:31;;;;;;;27.58;13.73;;;11.60;99.90;;;;;;5043838;28;20017;-56
2021/09/02 05:39:57;;;;;;;28.50;12.77;;;11.60;99.90;;;;;;5047897;28;20104;-60
2021/09/02 05:42:24;;;;;;;22.05;12.05;;;11.70;99.90;;;;;;5049799;28;20070;-58
2021/09/02 05:44:50;;;;;;;17.98;9.98;;;11.80;99.90;;;;;;5050973;28;20107;-58
2021/09/02 05:47:16;;;;;;;17.13;10.95;;;11.90;99.90;;;;;;5046337;28;20020;-60
2021/09/02 05:49:41;;;;;;;23.45;12.70;;;12.10;99.90;;;;;;5045898;28;20029;-54
2021/09/02 05:52:07;;;;;;;20.90;11.27;;;12.30;99.90;;;;;;5048560;28;20031;-61
2021/09/02 05:54:32;;;;;;;22.48;9.68;;;12.40;99.90;;;;;;5044661;28;20033;-60
2021/09/02 05:56:58;;;;;;;19.08;11.45;;;12.60;99.90;;;;;;5049896;28;20495;-59
2021/09/02 05:59:24;;;;;;;20.50;11.13;;;12.70;99.90;;;;;;5049077;28;20074;-60
2021/09/02 06:01:49;;;;;;;14.30;8.90;;;12.80;99.90;;;;;;5048092;28;20064;-57
2021/09/02 06:04:15;;;;;;;11.60;7.45;;;12.90;99.90;;;;;;5050418;28;20428;-59
2021/09/02 06:06:41;;;;;;;18.17;7.80;;;13.10;99.90;;;;;;5046909;28;20063;-57
2021/09/02 06:09:07;;;;;;;12.00;7.25;;;13.20;99.90;;;;;;5047142;28;20048;-58
2021/09/02 06:11:33;;;;;;;15.23;6.93;;;13.40;99.90;;;;;;5048655;28;20085;-60
2021/09/02 06:13:59;;;;;;;23.10;6.30;;;13.50;99.90;;;;;;5050225;28;20124;-59
2021/09/02 06:16:25;;;;;;;11.75;6.55;;;13.60;99.90;;;;;;5049493;28;20730;-59
2021/09/02 06:18:51;;;;;;;9.73;7.22;;;13.70;99.90;;;;;;5046702;28;20017;-59
2021/09/02 06:21:17;;;;;;;12.52;7.65;;;13.80;99.90;;;;;;5049007;28;20041;-59
2021/09/02 06:23:43;;;;;;;14.88;9.30;;;14.10;99.90;;;;;;5049723;28;20108;-60
2021/09/02 06:26:09;;;;;;;19.30;11.32;;;14.30;99.90;;;;;;5049850;28;20112;-59
2021/09/02 06:28:34;;;;;;;15.70;10.25;;;14.40;99.90;;;;;;5048895;28;20059;-59
2021/09/02 06:31:00;;;;;;;22.13;12.48;;;14.70;99.90;;;;;;5050206;28;20083;-60
2021/09/02 06:33:25;;;;;;;17.45;10.95;;;14.60;99.90;;;;;;5050742;28;20037;-61
2021/09/02 06:35:51;;;;;;;18.83;11.23;;;14.70;99.90;;;;;;5045463;28;20025;-60
2021/09/02 06:38:17;;;;;;;17.65;10.45;;;15.00;99.90;;;;;;5049987;28;20060;-58
2021/09/02 06:40:42;;;;;;;13.25;8.18;;;15.60;99.90;;;;;;5049816;28;20025;-62
2021/09/02 06:43:08;;;;;;;13.98;8.80;;;16.20;99.90;;;;;;5049455;28;20029;-61
2021/09/02 06:45:34;;;;;;;14.82;8.43;;;17.50;99.90;;;;;;5050342;28;20086;-59
2021/09/02 06:47:59;;;;;;;14.75;9.43;;;19.00;99.90;;;;;;5048479;28;20025;-59
2021/09/02 06:50:25;;;;;;;18.42;8.45;;;19.00;99.90;;;;;;5048455;28;20033;-59
2021/09/02 06:52:52;;;;;;;12.73;8.23;;;19.80;99.90;;;;;;5046911;28;20036;-59
2021/09/02 06:55:17;;;;;;;10.63;7.93;;;20.90;99.70;;;;;;5030957;28;20483;-60
2021/09/02 06:57:43;;;;;;;15.95;9.07;;;21.80;99.00;;;;;;5046225;28;20078;-60
2021/09/02 07:00:10;;;;;;;14.75;7.57;;;21.70;97.90;;;;;;5022504;28;20091;-61
2021/09/02 07:02:36;;;;;;;12.32;6.85;;;23.10;96.60;;;;;;5047522;28;20147;-60
2021/09/02 07:05:03;;;;;;;11.85;6.72;;;23.50;95.60;;;;;;5048235;28;20251;-61
2021/09/02 07:07:29;;;;;;;15.02;8.50;;;23.40;95.00;;;;;;5047788;28;20029;-59
2021/09/02 07:09:55;;;;;;;13.90;7.03;;;23.70;94.40;;;;;;5046546;28;20526;-61
2021/09/02 07:12:20;;;;;;;15.20;9.18;;;23.70;94.40;;;;;;5046638;28;20555;-61
2021/09/02 07:14:46;;;;;;;15.02;9.45;;;23.70;93.20;;;;;;5047043;28;20021;-60
2021/09/02 07:17:12;;;;;;;11.73;8.25;;;22.90;93.50;;;;;;5043317;28;20017;-61
2021/09/02 07:19:38;;;;;;;13.10;8.57;;;22.70;94.30;;;;;;5044818;28;20039;-61
2021/09/02 07:22:03;;;;;;;12.75;8.40;;;23.90;92.80;;;;;;5046608;28;20106;-57
2021/09/02 07:24:30;;;;;;;14.32;7.32;;;24.50;91.70;;;;;;5048429;28;20021;-58
2021/09/02 07:26:56;;;;;;;10.70;7.07;;;24.50;93.00;;;;;;5048114;28;20032;-61
2021/09/02 07:29:21;;;;;;;16.02;9.15;;;24.80;92.20;;;;;;5030032;28;20021;-61
2021/09/02 07:31:47;;;;;;;12.60;7.97;;;24.40;91.70;;;;;;5048196;28;20025;-61
2021/09/02 07:34:13;;;;;;;13.15;8.43;;;24.50;91.90;;;;;;5048420;28;20029;-60
2021/09/02 07:36:39;;;;;;;11.32;7.03;;;24.40;92.00;;;;;;5048099;28;20029;-57
2021/09/02 07:39:05;;;;;;;14.88;8.35;;;25.30;91.20;;;;;;5047623;28;20025;-56
2021/09/02 07:41:31;;;;;;;13.25;8.52;;;25.50;91.10;;;;;;5052017;28;20032;-59
2021/09/02 07:43:57;;;;;;;11.13;6.88;;;24.60;90.80;;;;;;5052329;28;20043;-60
2021/09/02 07:46:23;;;;;;;13.95;7.38;;;24.60;91.20;;;;;;5052013;28;20055;-59
2021/09/02 07:48:49;;;;;;;10.65;8.07;;;25.10;90.90;;;;;;5050269;28;20029;-59
2021/09/02 07:51:16;;;;;;;9.65;6.90;;;25.00;90.80;;;;;;5051468;28;20521;-61
2021/09/02 07:53:41;;;;;;;14.45;7.13;;;25.40;90.40;;;;;;5052021;28;20661;-59
2021/09/02 07:56:07;;;;;;;9.75;6.45;;;25.90;90.80;;;;;;5051877;28;20025;-61
2021/09/02 07:58:34;;;;;;;14.98;7.55;;;27.00;88.30;;;;;;5051087;28;20049;-61
2021/09/02 08:01:00;;;;;;;14.50;7.88;;;26.00;89.30;;;;;;5030071;28;20498;-60
2021/09/02 08:03:25;;;;;;;12.40;7.05;;;25.50;89.60;;;;;;5053800;28;20028;-59
2021/09/02 08:05:51;;;;;;;9.27;6.40;;;26.60;89.20;;;;;;5052609;28;20082;-60
2021/09/02 08:08:17;;;;;;;10.02;6.70;;;25.90;89.50;;;;;;5044845;28;20039;-59
2021/09/02 08:10:44;;;;;;;11.77;6.85;;;26.90;86.80;;;;;;5051089;28;20064;-60
2021/09/02 08:13:10;;;;;;;11.77;7.45;;;26.40;88.60;;;;;;5051343;28;20111;-61
2021/09/02 08:15:36;;;;;;;11.38;7.43;;;26.00;88.10;;;;;;5051993;28;20539;-60
2021/09/02 08:18:02;;;;;;;11.68;6.90;;;25.90;87.70;;;;;;5048456;28;20405;-60
2021/09/02 08:20:28;;;;;;;10.80;7.03;;;26.10;89.40;;;;;;5046843;28;20108;-61
2021/09/02 08:22:55;;;;;;;13.57;7.78;;;26.00;88.20;;;;;;5049751;28;20030;-60
2021/09/02 08:25:21;;;;;;;12.13;7.55;;;26.50;87.20;;;;;;5050701;28;20111;-61
2021/09/02 08:27:46;;;;;;;12.48;6.90;;;26.00;87.60;;;;;;5049984;28;20120;-60
2021/09/02 08:30:15;;;;;;;11.43;6.45;;;25.60;88.10;;;;;;5051295;28;20032;-52
2021/09/02 08:32:47;;;;;;;14.63;7.40;;;25.30;87.30;;;;;;5049556;28;20037;-57
2021/09/02 08:35:13;;;;;;;10.43;7.20;;;25.20;89.30;;;;;;5050137;28;20045;-59
2021/09/02 08:37:39;;;;;;;10.05;7.07;;;25.80;88.80;;;;;;5050598;28;20025;-60
2021/09/02 08:40:06;;;;;;;9.30;6.57;;;25.50;88.90;;;;;;5051722;28;20479;-60
2021/09/02 08:42:32;;;;;;;12.60;6.93;;;25.50;89.10;;;;;;5051217;28;20036;-61
2021/09/02 08:44:58;;;;;;;12.02;6.28;;;25.30;89.00;;;;;;5049822;28;20035;-62
2021/09/02 08:47:25;;;;;;;11.57;6.75;;;25.80;90.40;;;;;;5048013;28;20573;-60
2021/09/02 08:49:54;;;;;;;10.75;6.88;;;25.80;87.80;;;;;;5050037;28;20095;-60
2021/09/02 08:52:20;;;;;;;9.93;6.20;;;25.60;89.20;;;;;;5049901;28;20064;-61
2021/09/02 08:54:47;;;;;;;13.10;6.55;;;25.70;89.50;;;;;;5050961;28;20021;-60
2021/09/02 08:57:14;;;;;;;13.35;6.82;;;25.50;89.90;;;;;;5047913;28;20204;-61
2021/09/02 08:59:39;;;;;;;10.15;5.68;;;25.60;88.70;;;;;;5034173;28;20041;-60
2021/09/02 09:02:24;;;;;;;10.10;6.13;;;25.30;89.90;;;;;;5050701;28;20537;-61
2021/09/02 09:04:59;;;;;;;11.93;6.20;;;25.80;89.30;;;;;;5047923;28;20017;-57
2021/09/02 09:07:36;;;;;;;9.65;6.32;;;26.50;88.50;;;;;;5049715;28;20024;-62
2021/09/02 09:10:08;;;;;;;15.57;6.63;;;26.30;86.80;;;;;;5049066;28;20108;-61
2021/09/02 09:12:40;;;;;;;11.77;6.90;;;26.10;88.20;;;;;;5049483;28;20830;-60
2021/09/02 09:15:08;;;;;;;10.40;6.25;;;26.80;86.00;;;;;;5048392;28;20033;-62
2021/09/02 09:17:34;;;;;;;9.65;5.93;;;26.40;85.60;;;;;;5049115;28;20057;-60
2021/09/02 09:20:05;;;;;;;12.95;5.72;;;26.20;86.70;;;;;;5048963;28;20049;-60
2021/09/02 09:22:30;;;;;;;14.35;6.55;;;25.50;90.00;;;;;;5045464;28;20033;-60
2021/09/02 09:24:57;;;;;;;14.82;6.25;;;25.50;89.20;;;;;;5048415;28;20036;-60
2021/09/02 09:27:35;;;;;;;11.75;6.40;;;25.50;90.20;;;;;;5048709;28;20035;-61
2021/09/02 09:30:03;;;;;;;7.72;5.28;;;25.60;90.20;;;;;;5048397;28;20021;-61
2021/09/02 09:32:37;;;;;;;9.63;6.50;;;25.70;90.50;;;;;;5049605;28;20067;-61
2021/09/02 09:35:03;;;;;;;13.25;6.38;;;25.50;89.70;;;;;;5046946;28;20048;-60
2021/09/02 09:37:29;;;;;;;14.43;6.18;;;25.40;90.00;;;;;;5039690;28;20040;-61
2021/09/02 09:40:09;;;;;;;7.20;4.85;;;25.70;87.90;;;;;;5047615;28;20029;-61
2021/09/02 09:42:34;;;;;;;10.68;6.25;;;25.90;88.60;;;;;;5048550;28;20037;-60
2021/09/02 09:45:00;;;;;;;9.50;4.93;;;26.20;86.50;;;;;;5044501;28;20033;-61
2021/09/02 09:47:27;;;;;;;9.35;5.03;;;26.80;87.10;;;;;;5050474;28;20032;-61
2021/09/02 09:49:58;;;;;;;11.80;6.00;;;26.80;87.70;;;;;;5048619;28;20028;-61
2021/09/02 09:52:30;;;;;;;7.95;5.18;;;26.30;86.20;;;;;;5049044;28;20025;-59
2021/09/02 09:55:16;;;;;;;12.88;5.80;;;26.80;86.10;;;;;;5045420;28;20036;-59
2021/09/02 09:57:43;;;;;;;10.73;5.65;;;26.70;85.10;;;;;;5045460;28;20423;-55
2021/09/02 10:00:12;;;;;;;13.00;5.38;;;26.30;85.30;;;;;;5031608;28;20049;-58
2021/09/02 10:02:40;;;;;;;10.18;5.55;;;26.10;87.70;;;;;;5048460;28;20457;-59
2021/09/02 10:05:08;;;;;;;7.85;5.15;;;26.10;88.50;;;;;;5050354;28;20033;-59
2021/09/02 10:07:35;;;;;;;9.52;5.13;;;25.80;88.30;;;;;;5050993;28;20033;-59
2021/09/02 10:10:02;;;;;;;9.30;5.43;;;26.00;87.50;;;;;;5045928;28;20032;-59
2021/09/02 10:12:34;;;;;;;8.45;5.60;;;25.30;87.90;;;;;;5061112;28;20491;-58
2021/09/02 10:15:03;;;;;;;11.27;4.82;;;24.70;87.20;;;;;;5046924;28;20033;-58
2021/09/02 10:17:32;;;;;;;12.95;5.30;;;24.30;90.40;;;;;;5045858;28;20486;-58
2021/09/02 10:19:58;;;;;;;8.85;5.18;;;24.30;90.30;;;;;;5048270;28;20115;-58
2021/09/02 10:22:24;;;;;;;11.52;5.65;;;24.40;90.60;;;;;;5048996;28;20544;-57
2021/09/02 10:24:49;;;;;;;9.57;5.20;;;24.60;90.60;;;;;;5049354;28;20112;-54
2021/09/02 10:27:17;;;;;;;10.77;5.38;;;24.60;90.70;;;;;;5047345;28;20526;-59
2021/09/02 10:29:45;;;;;;;12.43;5.18;;;24.20;90.70;;;;;;5046037;28;20575;-57
2021/09/02 10:32:22;;;;;;;10.00;5.63;;;24.30;90.30;;;;;;5046002;28;20039;-58
2021/09/02 10:34:52;;;;;;;11.90;5.47;;;24.10;90.60;;;;;;5046034;28;20025;-57
2021/09/02 10:37:35;;;;;;;8.82;5.35;;;23.90;90.40;;;;;;5047963;28;20052;-56
2021/09/02 10:40:06;;;;;;;;;;;24.20;91.60;;;;;;5050357;28;20033;-57
2021/09/02 10:42:46;;;;;;;9.55;5.65;;;24.20;91.00;;;;;;5049320;28;19980;-58
2021/09/02 10:45:30;;;;;;;8.00;4.85;;;24.20;91.10;;;;;;5039621;28;20033;-58
2021/09/02 10:48:20;;;;;;;12.75;5.68;;;24.30;91.60;;;;;;5048565;28;20013;-58
2021/09/02 10:50:47;;;;;;;8.13;4.40;;;24.30;90.60;;;;;;5047599;28;20041;-56
2021/09/02 10:53:17;;;;;;;8.77;5.00;;;24.50;91.00;;;;;;5048390;28;20021;-57
2021/09/02 10:55:53;;;;;;;10.85;5.40;;;24.60;90.50;;;;;;5046617;28;20013;-58
2021/09/02 10:58:38;;;;;;;10.18;4.78;;;24.90;90.80;;;;;;5044356;28;20391;-58
2021/09/02 11:01:31;;;;;;;11.07;5.28;;;25.10;90.70;;;;;;5028394;28;20547;-58
2021/09/02 11:04:03;;;;;;;10.57;4.95;;;25.30;90.90;;;;;;5044755;28;20049;-56
2021/09/02 11:06:29;;;;;;;7.28;4.60;;;25.30;89.70;;;;;;5048452;28;20033;-60
2021/09/02 11:08:55;;;;;;;11.43;4.88;;;25.00;88.80;;;;;;5042850;28;20029;-59
2021/09/02 11:11:22;;;;;;;10.35;5.13;;;24.90;90.00;;;;;;5049119;28;20036;-57
2021/09/02 11:13:53;;;;;;;9.70;4.80;;;24.70;90.30;;;;;;5046259;28;20035;-58
2021/09/02 11:16:23;;;;;;;7.55;5.20;;;24.40;90.50;;;;;;5040407;28;20495;-58
2021/09/02 11:18:52;;;;;;;8.63;5.43;;;24.30;90.10;;;;;;5050016;28;20083;-61
2021/09/02 11:21:26;;;;;;;5.93;4.47;;;24.40;90.30;;;;;;5052564;28;20096;-56
2021/09/02 11:24:06;;;;;;;8.38;4.90;;;24.20;90.20;;;;;;5052213;28;20036;-56
2021/09/02 11:26:44;;;;;;;10.93;5.20;;;24.20;90.90;;;;;;5052814;28;20025;-59
2021/09/02 11:29:23;;;;;;;9.38;5.13;;;24.30;90.80;;;;;;5048128;28;20025;-60
2021/09/02 11:32:12;;;;;;;7.88;4.45;;;24.60;90.30;;;;;;5050081;28;20172;-60
2021/09/02 11:34:39;;;;;;;7.18;4.47;;;24.70;89.60;;;;;;5046620;28;20028;-60
2021/09/02 11:37:06;;;;;;;7.28;4.47;;;24.50;90.30;;;;;;5045391;28;20025;-58
2021/09/02 11:39:34;;;;;;;7.78;5.25;;;24.60;90.40;;;;;;5049065;28;20036;-57
2021/09/02 11:42:03;;;;;;;9.07;4.93;;;24.60;90.90;;;;;;5052191;28;20094;-59
2021/09/02 11:44:31;;;;;;;6.85;4.80;;;24.70;90.30;;;;;;5051611;28;20021;-58
2021/09/02 11:46:58;;;;;;;9.63;4.70;;;24.70;91.40;;;;;;5050812;28;20031;-58
2021/09/02 11:49:23;;;;;;;7.85;5.00;;;24.60;91.70;;;;;;5051347;28;20394;-58
2021/09/02 11:51:55;;;;;;;9.63;4.65;;;24.30;90.90;;;;;;5051226;28;20112;-57
2021/09/02 11:54:21;;;;;;;9.35;5.20;;;24.40;90.60;;;;;;5052729;28;20052;-58
2021/09/02 11:56:46;;;;;;;11.48;4.30;;;24.30;89.50;;;;;;5044861;28;20107;-57
2021/09/02 11:59:12;;;;;;;9.55;4.50;;;24.30;88.50;;;;;;5051430;28;20493;-56
2021/09/02 12:01:52;;;;;;;7.38;4.38;;;24.30;90.20;;;;;;5035639;28;20037;-56
2021/09/02 12:04:26;;;;;;;9.05;4.22;;;24.20;90.90;;;;;;5049739;28;20098;-58
2021/09/02 12:06:59;;;;;;;8.40;4.45;;;24.10;90.70;;;;;;5049534;28;20028;-61
2021/09/02 12:09:30;;;;;;;7.05;4.20;;;23.80;90.80;;;;;;5049756;28;20483;-59
2021/09/02 12:11:57;;;;;;;8.32;4.03;;;23.60;91.50;;;;;;5050761;28;20468;-59
2021/09/02 12:14:25;;;;;;;7.82;3.75;;;23.40;92.10;;;;;;5051986;28;20108;-53
2021/09/02 12:17:11;;;;;;;8.95;4.68;;;23.40;92.50;;;;;;5047340;28;20029;-59
2021/09/02 12:20:03;;;;;;;8.95;4.55;;;23.40;91.90;;;;;;5051842;28;20043;-60
2021/09/02 12:22:40;;;;;;;7.03;4.70;;;23.40;92.20;;;;;;5048161;28;20041;-60
2021/09/02 12:25:06;;;;;;;7.05;4.32;;;23.40;91.60;;;;;;5026012;28;20020;-61
2021/09/02 12:27:46;;;;;;;7.47;4.70;;;23.50;91.60;;;;;;5047648;28;20635;-61
2021/09/02 12:30:13;;;;;;;8.95;4.88;;;23.30;91.50;;;;;;5044466;28;20067;-59
2021/09/02 12:32:39;;;;;;;8.30;4.43;;;23.20;93.10;;;;;;5046861;28;20112;-60
2021/09/02 12:35:16;;;;;;;9.68;4.88;;;23.20;92.40;;;;;;5052261;28;20100;-60
2021/09/02 12:37:42;;;;;;;6.63;4.30;;;23.30;92.70;;;;;;5047619;28;20025;-59
2021/09/02 12:40:17;;;;;;;5.63;4.43;;;23.30;91.90;;;;;;5051452;28;20017;-59